sensor_id;sensor_type;location;lat;lon;timestamp;P1;durP1;ratioP1;P2;durP2;ratioP2
68608;SDS011;55581;46.718;7.690;2023-04-24T00:00:41;0.60;;;0.10;;
68608;SDS011;55581;46.718;7.690;2023-04-24T00:03:09;0.60;;;0.10;;
68608;SDS011;55581;46.718;7.690;2023-04-24T00:05:37;0.50;;;0.10;;
68608;SDS011;55581;46.718;7.690;2023-04-24T00:08:07;0.60;;;0.10;;
68608;SDS011;55581;46.718;7.690;2023-04-24T00:10:33;0.60;;;0.10;;
68608;SDS011;55581;46.718;7.690;2023-04-24T00:13:00;1.02;;;0.10;;
68608;SDS011;55581;46.718;7.690;2023-04-24T00:15:26;0.70;;;0.10;;
68608;SDS011;55581;46.718;7.690;2023-04-24T00:17:53;0.68;;;0.10;;
68608;SDS011;55581;46.718;7.690;2023-04-24T00:20:19;0.80;;;0.10;;
68608;SDS011;55581;46.718;7.690;2023-04-24T00:22:45;2.88;;;0.20;;
68608;SDS011;55581;46.718;7.690;2023-04-24T00:25:10;0.60;;;0.10;;
68608;SDS011;55581;46.718;7.690;2023-04-24T00:27:38;0.90;;;0.20;;
68608;SDS011;55581;46.718;7.690;2023-04-24T00:30:04;0.50;;;0.10;;
68608;SDS011;55581;46.718;7.690;2023-04-24T00:32:30;0.73;;;0.10;;
68608;SDS011;55581;46.718;7.690;2023-04-24T00:34:55;0.80;;;0.10;;
68608;SDS011;55581;46.718;7.690;2023-04-24T00:37:21;0.80;;;0.10;;
68608;SDS011;55581;46.718;7.690;2023-04-24T00:39:46;1.20;;;0.10;;
68608;SDS011;55581;46.718;7.690;2023-04-24T00:42:11;0.50;;;0.10;;
68608;SDS011;55581;46.718;7.690;2023-04-24T00:44:39;0.80;;;0.10;;
68608;SDS011;55581;46.718;7.690;2023-04-24T00:47:05;0.70;;;0.10;;
68608;SDS011;55581;46.718;7.690;2023-04-24T00:49:33;0.70;;;0.10;;
68608;SDS011;55581;46.718;7.690;2023-04-24T00:51:59;0.85;;;0.10;;
68608;SDS011;55581;46.718;7.690;2023-04-24T00:54:27;0.57;;;0.10;;
68608;SDS011;55581;46.718;7.690;2023-04-24T00:56:52;0.50;;;0.10;;
68608;SDS011;55581;46.718;7.690;2023-04-24T00:59:18;0.50;;;0.10;;
68608;SDS011;55581;46.718;7.690;2023-04-24T01:01:44;1.73;;;0.10;;
68608;SDS011;55581;46.718;7.690;2023-04-24T01:04:11;2.10;;;0.10;;
68608;SDS011;55581;46.718;7.690;2023-04-24T01:06:38;0.40;;;0.10;;
68608;SDS011;55581;46.718;7.690;2023-04-24T01:09:05;1.20;;;0.10;;
68608;SDS011;55581;46.718;7.690;2023-04-24T01:11:34;1.75;;;0.10;;
68608;SDS011;55581;46.718;7.690;2023-04-24T01:13:59;0.60;;;0.10;;
68608;SDS011;55581;46.718;7.690;2023-04-24T01:16:24;0.67;;;0.10;;
68608;SDS011;55581;46.718;7.690;2023-04-24T01:18:50;2.53;;;0.10;;
68608;SDS011;55581;46.718;7.690;2023-04-24T01:21:19;2.45;;;0.10;;
68608;SDS011;55581;46.718;7.690;2023-04-24T01:23:46;1.75;;;0.10;;
68608;SDS011;55581;46.718;7.690;2023-04-24T01:26:15;0.50;;;0.10;;
68608;SDS011;55581;46.718;7.690;2023-04-24T01:28:45;1.40;;;0.20;;
68608;SDS011;55581;46.718;7.690;2023-04-24T01:31:11;1.30;;;0.13;;
68608;SDS011;55581;46.718;7.690;2023-04-24T01:33:36;3.00;;;0.10;;
68608;SDS011;55581;46.718;7.690;2023-04-24T01:36:02;2.03;;;0.20;;
68608;SDS011;55581;46.718;7.690;2023-04-24T01:38:28;1.30;;;0.13;;
68608;SDS011;55581;46.718;7.690;2023-04-24T01:40:53;1.42;;;0.10;;
68608;SDS011;55581;46.718;7.690;2023-04-24T01:43:19;1.63;;;0.20;;
68608;SDS011;55581;46.718;7.690;2023-04-24T01:45:44;0.93;;;0.10;;
68608;SDS011;55581;46.718;7.690;2023-04-24T01:48:10;0.70;;;0.10;;
68608;SDS011;55581;46.718;7.690;2023-04-24T01:50:37;0.50;;;0.00;;
68608;SDS011;55581;46.718;7.690;2023-04-24T01:53:04;0.93;;;0.10;;
68608;SDS011;55581;46.718;7.690;2023-04-24T01:55:30;0.87;;;0.10;;
68608;SDS011;55581;46.718;7.690;2023-04-24T01:57:56;0.50;;;0.10;;
68608;SDS011;55581;46.718;7.690;2023-04-24T02:00:22;0.65;;;0.10;;
68608;SDS011;55581;46.718;7.690;2023-04-24T02:02:50;0.70;;;0.10;;
68608;SDS011;55581;46.718;7.690;2023-04-24T02:05:15;0.97;;;0.17;;
68608;SDS011;55581;46.718;7.690;2023-04-24T02:07:41;0.88;;;0.10;;
68608;SDS011;55581;46.718;7.690;2023-04-24T02:10:06;1.63;;;0.20;;
68608;SDS011;55581;46.718;7.690;2023-04-24T02:12:32;1.88;;;0.10;;
68608;SDS011;55581;46.718;7.690;2023-04-24T02:15:00;3.20;;;0.30;;
68608;SDS011;55581;46.718;7.690;2023-04-24T02:17:25;3.50;;;0.25;;
68608;SDS011;55581;46.718;7.690;2023-04-24T02:19:51;0.80;;;0.10;;
68608;SDS011;55581;46.718;7.690;2023-04-24T02:22:16;2.53;;;0.20;;
68608;SDS011;55581;46.718;7.690;2023-04-24T02:24:42;2.97;;;0.20;;
68608;SDS011;55581;46.718;7.690;2023-04-24T02:27:07;0.90;;;0.10;;
68608;SDS011;55581;46.718;7.690;2023-04-24T02:29:36;0.95;;;0.10;;
68608;SDS011;55581;46.718;7.690;2023-04-24T02:32:01;0.70;;;0.10;;
68608;SDS011;55581;46.718;7.690;2023-04-24T02:34:27;0.73;;;0.10;;
68608;SDS011;55581;46.718;7.690;2023-04-24T02:36:52;3.65;;;0.32;;
68608;SDS011;55581;46.718;7.690;2023-04-24T02:39:19;4.50;;;0.40;;
68608;SDS011;55581;46.718;7.690;2023-04-24T02:41:44;1.45;;;0.22;;
68608;SDS011;55581;46.718;7.690;2023-04-24T02:44:10;1.33;;;0.20;;
68608;SDS011;55581;46.718;7.690;2023-04-24T02:46:35;1.13;;;0.20;;
68608;SDS011;55581;46.718;7.690;2023-04-24T02:49:01;1.80;;;0.25;;
68608;SDS011;55581;46.718;7.690;2023-04-24T02:51:26;1.13;;;0.20;;
68608;SDS011;55581;46.718;7.690;2023-04-24T02:53:52;0.67;;;0.10;;
68608;SDS011;55581;46.718;7.690;2023-04-24T02:56:17;1.30;;;0.10;;
68608;SDS011;55581;46.718;7.690;2023-04-24T02:58:45;1.05;;;0.13;;
68608;SDS011;55581;46.718;7.690;2023-04-24T03:01:13;0.63;;;0.10;;
68608;SDS011;55581;46.718;7.690;2023-04-24T03:03:38;1.07;;;0.10;;
68608;SDS011;55581;46.718;7.690;2023-04-24T03:06:04;0.82;;;0.10;;
68608;SDS011;55581;46.718;7.690;2023-04-24T03:08:31;0.70;;;0.10;;
68608;SDS011;55581;46.718;7.690;2023-04-24T03:10:59;0.70;;;0.10;;
68608;SDS011;55581;46.718;7.690;2023-04-24T03:13:25;1.13;;;0.10;;
68608;SDS011;55581;46.718;7.690;2023-04-24T03:15:50;0.53;;;0.10;;
68608;SDS011;55581;46.718;7.690;2023-04-24T03:18:16;0.55;;;0.10;;
68608;SDS011;55581;46.718;7.690;2023-04-24T03:20:42;0.50;;;0.10;;
68608;SDS011;55581;46.718;7.690;2023-04-24T03:23:07;0.70;;;0.10;;
68608;SDS011;55581;46.718;7.690;2023-04-24T03:25:33;0.50;;;0.10;;
68608;SDS011;55581;46.718;7.690;2023-04-24T03:27:58;1.13;;;0.10;;
68608;SDS011;55581;46.718;7.690;2023-04-24T03:30:23;0.50;;;0.10;;
68608;SDS011;55581;46.718;7.690;2023-04-24T03:32:49;0.60;;;0.10;;
68608;SDS011;55581;46.718;7.690;2023-04-24T03:35:14;1.07;;;0.10;;
68608;SDS011;55581;46.718;7.690;2023-04-24T03:37:40;0.30;;;0.08;;
68608;SDS011;55581;46.718;7.690;2023-04-24T03:40:05;0.70;;;0.10;;
68608;SDS011;55581;46.718;7.690;2023-04-24T03:42:32;0.50;;;0.10;;
68608;SDS011;55581;46.718;7.690;2023-04-24T03:45:00;1.80;;;0.20;;
68608;SDS011;55581;46.718;7.690;2023-04-24T03:47:25;0.50;;;0.10;;
68608;SDS011;55581;46.718;7.690;2023-04-24T03:49:50;0.53;;;0.10;;
68608;SDS011;55581;46.718;7.690;2023-04-24T03:52:16;0.30;;;0.10;;
68608;SDS011;55581;46.718;7.690;2023-04-24T03:54:42;0.47;;;0.10;;
68608;SDS011;55581;46.718;7.690;2023-04-24T03:57:07;0.77;;;0.10;;
68608;SDS011;55581;46.718;7.690;2023-04-24T03:59:32;0.30;;;0.10;;
68608;SDS011;55581;46.718;7.690;2023-04-24T04:01:58;0.20;;;0.00;;
68608;SDS011;55581;46.718;7.690;2023-04-24T04:04:23;0.60;;;0.10;;
68608;SDS011;55581;46.718;7.690;2023-04-24T04:06:48;1.37;;;0.10;;
68608;SDS011;55581;46.718;7.690;2023-04-24T04:09:14;0.77;;;0.10;;
68608;SDS011;55581;46.718;7.690;2023-04-24T04:11:39;1.40;;;0.00;;
68608;SDS011;55581;46.718;7.690;2023-04-24T04:14:05;0.30;;;0.10;;
68608;SDS011;55581;46.718;7.690;2023-04-24T04:16:33;1.02;;;0.10;;
68608;SDS011;55581;46.718;7.690;2023-04-24T04:18:58;0.70;;;0.10;;
68608;SDS011;55581;46.718;7.690;2023-04-24T04:21:24;0.50;;;0.10;;
68608;SDS011;55581;46.718;7.690;2023-04-24T04:23:49;0.98;;;0.10;;
68608;SDS011;55581;46.718;7.690;2023-04-24T04:26:15;0.40;;;0.10;;
68608;SDS011;55581;46.718;7.690;2023-04-24T04:28:40;0.70;;;0.10;;
68608;SDS011;55581;46.718;7.690;2023-04-24T04:31:06;0.30;;;0.10;;
68608;SDS011;55581;46.718;7.690;2023-04-24T04:33:32;1.15;;;0.10;;
68608;SDS011;55581;46.718;7.690;2023-04-24T04:35:58;1.03;;;0.20;;
68608;SDS011;55581;46.718;7.690;2023-04-24T04:38:25;0.40;;;0.10;;
68608;SDS011;55581;46.718;7.690;2023-04-24T04:40:51;0.60;;;0.10;;
68608;SDS011;55581;46.718;7.690;2023-04-24T04:43:17;1.53;;;0.10;;
68608;SDS011;55581;46.718;7.690;2023-04-24T04:45:42;0.40;;;0.10;;
68608;SDS011;55581;46.718;7.690;2023-04-24T04:48:10;0.50;;;0.20;;
68608;SDS011;55581;46.718;7.690;2023-04-24T04:50:38;0.60;;;0.10;;
68608;SDS011;55581;46.718;7.690;2023-04-24T04:53:04;0.70;;;0.10;;
68608;SDS011;55581;46.718;7.690;2023-04-24T04:55:29;0.50;;;0.10;;
68608;SDS011;55581;46.718;7.690;2023-04-24T04:57:55;0.53;;;0.10;;
68608;SDS011;55581;46.718;7.690;2023-04-24T05:00:21;0.82;;;0.20;;
68608;SDS011;55581;46.718;7.690;2023-04-24T05:02:52;0.50;;;0.10;;
68608;SDS011;55581;46.718;7.690;2023-04-24T05:05:17;0.60;;;0.20;;
68608;SDS011;55581;46.718;7.690;2023-04-24T05:07:43;0.40;;;0.10;;
68608;SDS011;55581;46.718;7.690;2023-04-24T05:10:09;0.80;;;0.10;;
68608;SDS011;55581;46.718;7.690;2023-04-24T05:12:35;0.30;;;0.10;;
68608;SDS011;55581;46.718;7.690;2023-04-24T05:15:03;0.60;;;0.10;;
68608;SDS011;55581;46.718;7.690;2023-04-24T05:17:31;0.70;;;0.10;;
68608;SDS011;55581;46.718;7.690;2023-04-24T05:19:57;0.77;;;0.10;;
68608;SDS011;55581;46.718;7.690;2023-04-24T05:22:22;0.63;;;0.10;;
68608;SDS011;55581;46.718;7.690;2023-04-24T05:24:48;1.10;;;0.10;;
68608;SDS011;55581;46.718;7.690;2023-04-24T05:27:14;0.57;;;0.10;;
68608;SDS011;55581;46.718;7.690;2023-04-24T05:29:40;0.40;;;0.10;;
68608;SDS011;55581;46.718;7.690;2023-04-24T05:32:05;1.03;;;0.10;;
68608;SDS011;55581;46.718;7.690;2023-04-24T05:34:31;0.60;;;0.10;;
68608;SDS011;55581;46.718;7.690;2023-04-24T05:36:57;0.40;;;0.10;;
68608;SDS011;55581;46.718;7.690;2023-04-24T05:39:22;1.00;;;0.10;;
68608;SDS011;55581;46.718;7.690;2023-04-24T05:41:49;0.90;;;0.10;;
68608;SDS011;55581;46.718;7.690;2023-04-24T05:44:15;1.50;;;0.13;;
68608;SDS011;55581;46.718;7.690;2023-04-24T05:46:40;0.60;;;0.10;;
68608;SDS011;55581;46.718;7.690;2023-04-24T05:49:09;1.52;;;0.10;;
68608;SDS011;55581;46.718;7.690;2023-04-24T05:51:34;1.23;;;0.10;;
68608;SDS011;55581;46.718;7.690;2023-04-24T05:54:00;1.30;;;0.10;;
68608;SDS011;55581;46.718;7.690;2023-04-24T05:56:26;0.98;;;0.25;;
68608;SDS011;55581;46.718;7.690;2023-04-24T05:58:52;1.00;;;0.20;;
68608;SDS011;55581;46.718;7.690;2023-04-24T06:01:17;0.40;;;0.10;;
68608;SDS011;55581;46.718;7.690;2023-04-24T06:03:43;1.10;;;0.10;;
68608;SDS011;55581;46.718;7.690;2023-04-24T06:06:08;0.57;;;0.10;;
68608;SDS011;55581;46.718;7.690;2023-04-24T06:08:34;1.10;;;0.10;;
68608;SDS011;55581;46.718;7.690;2023-04-24T06:11:00;0.50;;;0.10;;
68608;SDS011;55581;46.718;7.690;2023-04-24T06:13:25;0.50;;;0.10;;
68608;SDS011;55581;46.718;7.690;2023-04-24T06:15:52;1.23;;;0.10;;
68608;SDS011;55581;46.718;7.690;2023-04-24T06:18:19;1.17;;;0.20;;
68608;SDS011;55581;46.718;7.690;2023-04-24T06:20:45;0.80;;;0.10;;
68608;SDS011;55581;46.718;7.690;2023-04-24T06:23:11;0.68;;;0.10;;
68608;SDS011;55581;46.718;7.690;2023-04-24T06:25:37;1.57;;;0.10;;
68608;SDS011;55581;46.718;7.690;2023-04-24T06:28:03;1.20;;;0.10;;
68608;SDS011;55581;46.718;7.690;2023-04-24T06:30:31;0.70;;;0.10;;
68608;SDS011;55581;46.718;7.690;2023-04-24T06:32:57;0.70;;;0.10;;
68608;SDS011;55581;46.718;7.690;2023-04-24T06:35:22;1.10;;;0.40;;
68608;SDS011;55581;46.718;7.690;2023-04-24T06:37:48;0.50;;;0.10;;
68608;SDS011;55581;46.718;7.690;2023-04-24T06:40:13;1.10;;;0.10;;
68608;SDS011;55581;46.718;7.690;2023-04-24T06:42:43;1.17;;;0.10;;
68608;SDS011;55581;46.718;7.690;2023-04-24T06:45:09;0.87;;;0.10;;
68608;SDS011;55581;46.718;7.690;2023-04-24T06:47:34;1.15;;;0.10;;
68608;SDS011;55581;46.718;7.690;2023-04-24T06:50:00;0.60;;;0.10;;
68608;SDS011;55581;46.718;7.690;2023-04-24T06:52:25;0.70;;;0.10;;
68608;SDS011;55581;46.718;7.690;2023-04-24T06:54:51;0.40;;;0.00;;
68608;SDS011;55581;46.718;7.690;2023-04-24T06:57:17;0.60;;;0.10;;
68608;SDS011;55581;46.718;7.690;2023-04-24T06:59:42;0.80;;;0.10;;
68608;SDS011;55581;46.718;7.690;2023-04-24T07:02:08;1.60;;;0.30;;
68608;SDS011;55581;46.718;7.690;2023-04-24T07:04:33;0.50;;;0.10;;
68608;SDS011;55581;46.718;7.690;2023-04-24T07:06:59;1.80;;;0.10;;
68608;SDS011;55581;46.718;7.690;2023-04-24T07:09:25;1.03;;;0.10;;
68608;SDS011;55581;46.718;7.690;2023-04-24T07:11:51;2.30;;;0.40;;
68608;SDS011;55581;46.718;7.690;2023-04-24T07:14:17;0.80;;;0.10;;
68608;SDS011;55581;46.718;7.690;2023-04-24T07:16:45;1.53;;;0.20;;
68608;SDS011;55581;46.718;7.690;2023-04-24T07:19:11;0.82;;;0.13;;
68608;SDS011;55581;46.718;7.690;2023-04-24T07:21:38;1.88;;;0.20;;
68608;SDS011;55581;46.718;7.690;2023-04-24T07:24:03;1.43;;;0.10;;
68608;SDS011;55581;46.718;7.690;2023-04-24T07:26:29;1.00;;;0.10;;
68608;SDS011;55581;46.718;7.690;2023-04-24T07:28:55;0.88;;;0.10;;
68608;SDS011;55581;46.718;7.690;2023-04-24T07:31:23;0.50;;;0.10;;
68608;SDS011;55581;46.718;7.690;2023-04-24T07:33:48;1.10;;;0.10;;
68608;SDS011;55581;46.718;7.690;2023-04-24T07:36:14;0.70;;;0.10;;
68608;SDS011;55581;46.718;7.690;2023-04-24T07:38:43;1.90;;;0.37;;
68608;SDS011;55581;46.718;7.690;2023-04-24T07:41:12;0.60;;;0.10;;
68608;SDS011;55581;46.718;7.690;2023-04-24T07:43:38;1.60;;;0.30;;
68608;SDS011;55581;46.718;7.690;2023-04-24T07:46:06;1.10;;;0.30;;
68608;SDS011;55581;46.718;7.690;2023-04-24T07:48:32;2.17;;;0.22;;
68608;SDS011;55581;46.718;7.690;2023-04-24T07:50:57;0.97;;;0.10;;
68608;SDS011;55581;46.718;7.690;2023-04-24T07:53:25;1.30;;;0.10;;
68608;SDS011;55581;46.718;7.690;2023-04-24T07:55:53;1.00;;;0.10;;
68608;SDS011;55581;46.718;7.690;2023-04-24T07:58:20;1.38;;;0.20;;
68608;SDS011;55581;46.718;7.690;2023-04-24T08:00:46;1.23;;;0.30;;
68608;SDS011;55581;46.718;7.690;2023-04-24T08:03:14;2.47;;;0.60;;
68608;SDS011;55581;46.718;7.690;2023-04-24T08:05:43;1.73;;;0.30;;
68608;SDS011;55581;46.718;7.690;2023-04-24T08:08:08;1.30;;;0.30;;
68608;SDS011;55581;46.718;7.690;2023-04-24T08:10:34;2.00;;;0.30;;
68608;SDS011;55581;46.718;7.690;2023-04-24T08:12:59;1.30;;;0.20;;
68608;SDS011;55581;46.718;7.690;2023-04-24T08:15:24;2.00;;;0.37;;
68608;SDS011;55581;46.718;7.690;2023-04-24T08:17:52;3.42;;;0.38;;
68608;SDS011;55581;46.718;7.690;2023-04-24T08:20:18;4.80;;;0.40;;
68608;SDS011;55581;46.718;7.690;2023-04-24T08:22:43;1.40;;;0.30;;
68608;SDS011;55581;46.718;7.690;2023-04-24T08:25:09;3.53;;;0.60;;
68608;SDS011;55581;46.718;7.690;2023-04-24T08:27:38;5.40;;;0.75;;
68608;SDS011;55581;46.718;7.690;2023-04-24T08:30:06;2.13;;;0.40;;
68608;SDS011;55581;46.718;7.690;2023-04-24T08:32:32;2.42;;;0.28;;
68608;SDS011;55581;46.718;7.690;2023-04-24T08:34:58;2.10;;;0.30;;
68608;SDS011;55581;46.718;7.690;2023-04-24T08:37:24;1.70;;;0.20;;
68608;SDS011;55581;46.718;7.690;2023-04-24T08:39:50;4.40;;;0.40;;
68608;SDS011;55581;46.718;7.690;2023-04-24T08:42:16;2.85;;;0.50;;
68608;SDS011;55581;46.718;7.690;2023-04-24T08:44:42;1.50;;;0.40;;
68608;SDS011;55581;46.718;7.690;2023-04-24T08:47:09;1.57;;;0.30;;
68608;SDS011;55581;46.718;7.690;2023-04-24T08:49:39;1.88;;;0.43;;
68608;SDS011;55581;46.718;7.690;2023-04-24T08:52:05;1.88;;;0.40;;
68608;SDS011;55581;46.718;7.690;2023-04-24T08:54:33;1.50;;;0.23;;
68608;SDS011;55581;46.718;7.690;2023-04-24T08:57:03;1.23;;;0.20;;
68608;SDS011;55581;46.718;7.690;2023-04-24T08:59:29;2.55;;;0.30;;
68608;SDS011;55581;46.718;7.690;2023-04-24T09:01:58;1.83;;;0.15;;
68608;SDS011;55581;46.718;7.690;2023-04-24T09:04:25;1.20;;;0.20;;
68608;SDS011;55581;46.718;7.690;2023-04-24T09:06:52;1.50;;;0.20;;
68608;SDS011;55581;46.718;7.690;2023-04-24T09:09:23;2.05;;;0.47;;
68608;SDS011;55581;46.718;7.690;2023-04-24T09:11:52;1.10;;;0.20;;
68608;SDS011;55581;46.718;7.690;2023-04-24T09:14:20;1.17;;;0.10;;
68608;SDS011;55581;46.718;7.690;2023-04-24T09:16:46;1.47;;;0.20;;
68608;SDS011;55581;46.718;7.690;2023-04-24T09:19:12;1.20;;;0.30;;
68608;SDS011;55581;46.718;7.690;2023-04-24T09:21:37;1.33;;;0.20;;
68608;SDS011;55581;46.718;7.690;2023-04-24T09:24:07;2.57;;;0.37;;
68608;SDS011;55581;46.718;7.690;2023-04-24T09:26:39;2.80;;;0.50;;
68608;SDS011;55581;46.718;7.690;2023-04-24T09:29:04;2.70;;;0.70;;
68608;SDS011;55581;46.718;7.690;2023-04-24T09:31:30;4.97;;;0.60;;
68608;SDS011;55581;46.718;7.690;2023-04-24T09:33:59;3.25;;;0.70;;
68608;SDS011;55581;46.718;7.690;2023-04-24T09:36:31;2.30;;;0.70;;
68608;SDS011;55581;46.718;7.690;2023-04-24T09:38:59;3.53;;;1.05;;
68608;SDS011;55581;46.718;7.690;2023-04-24T09:41:25;5.07;;;0.90;;
68608;SDS011;55581;46.718;7.690;2023-04-24T09:43:56;4.57;;;0.80;;
68608;SDS011;55581;46.718;7.690;2023-04-24T09:46:28;3.53;;;0.90;;
68608;SDS011;55581;46.718;7.690;2023-04-24T09:48:55;3.47;;;0.60;;
68608;SDS011;55581;46.718;7.690;2023-04-24T09:51:32;2.75;;;0.45;;
68608;SDS011;55581;46.718;7.690;2023-04-24T09:54:00;2.63;;;0.50;;
68608;SDS011;55581;46.718;7.690;2023-04-24T09:56:26;1.73;;;0.30;;
68608;SDS011;55581;46.718;7.690;2023-04-24T09:58:51;2.80;;;0.70;;
68608;SDS011;55581;46.718;7.690;2023-04-24T10:01:28;2.38;;;0.45;;
68608;SDS011;55581;46.718;7.690;2023-04-24T10:03:55;2.20;;;0.50;;
68608;SDS011;55581;46.718;7.690;2023-04-24T10:06:23;3.67;;;0.55;;
68608;SDS011;55581;46.718;7.690;2023-04-24T10:08:56;2.60;;;0.60;;
68608;SDS011;55581;46.718;7.690;2023-04-24T10:11:23;2.38;;;0.63;;
68608;SDS011;55581;46.718;7.690;2023-04-24T10:13:51;3.22;;;0.70;;
68608;SDS011;55581;46.718;7.690;2023-04-24T10:16:19;4.27;;;0.50;;
68608;SDS011;55581;46.718;7.690;2023-04-24T10:18:47;2.90;;;0.75;;
68608;SDS011;55581;46.718;7.690;2023-04-24T10:21:14;2.63;;;0.50;;
68608;SDS011;55581;46.718;7.690;2023-04-24T10:23:40;2.33;;;0.43;;
68608;SDS011;55581;46.718;7.690;2023-04-24T10:26:06;4.83;;;0.90;;
68608;SDS011;55581;46.718;7.690;2023-04-24T10:28:34;3.20;;;0.90;;
68608;SDS011;55581;46.718;7.690;2023-04-24T10:31:04;2.70;;;0.80;;
68608;SDS011;55581;46.718;7.690;2023-04-24T10:33:29;3.17;;;0.50;;
68608;SDS011;55581;46.718;7.690;2023-04-24T10:35:56;2.45;;;0.32;;
68608;SDS011;55581;46.718;7.690;2023-04-24T10:38:24;2.80;;;0.50;;
68608;SDS011;55581;46.718;7.690;2023-04-24T10:40:51;3.13;;;0.52;;
68608;SDS011;55581;46.718;7.690;2023-04-24T10:43:34;2.45;;;0.57;;
68608;SDS011;55581;46.718;7.690;2023-04-24T10:46:00;3.00;;;0.60;;
68608;SDS011;55581;46.718;7.690;2023-04-24T10:48:30;4.15;;;1.08;;
68608;SDS011;55581;46.718;7.690;2023-04-24T10:50:57;3.42;;;0.70;;
68608;SDS011;55581;46.718;7.690;2023-04-24T10:53:27;5.20;;;0.73;;
68608;SDS011;55581;46.718;7.690;2023-04-24T10:56:03;3.10;;;0.60;;
68608;SDS011;55581;46.718;7.690;2023-04-24T10:58:41;2.10;;;0.60;;
68608;SDS011;55581;46.718;7.690;2023-04-24T11:01:27;3.15;;;0.80;;
68608;SDS011;55581;46.718;7.690;2023-04-24T11:03:56;4.55;;;0.90;;
68608;SDS011;55581;46.718;7.690;2023-04-24T11:06:33;3.60;;;0.50;;
68608;SDS011;55581;46.718;7.690;2023-04-24T11:09:07;4.57;;;0.77;;
68608;SDS011;55581;46.718;7.690;2023-04-24T11:11:37;2.25;;;0.50;;
68608;SDS011;55581;46.718;7.690;2023-04-24T11:14:06;3.25;;;0.60;;
68608;SDS011;55581;46.718;7.690;2023-04-24T11:16:35;3.42;;;0.52;;
68608;SDS011;55581;46.718;7.690;2023-04-24T11:27:20;3.03;;;0.85;;
68608;SDS011;55581;46.718;7.690;2023-04-24T11:29:48;3.88;;;0.80;;
68608;SDS011;55581;46.718;7.690;2023-04-24T11:32:41;3.10;;;0.60;;
68608;SDS011;55581;46.718;7.690;2023-04-24T11:37:40;3.35;;;0.80;;
68608;SDS011;55581;46.718;7.690;2023-04-24T11:40:11;2.47;;;0.40;;
68608;SDS011;55581;46.718;7.690;2023-04-24T11:42:44;2.65;;;0.65;;
68608;SDS011;55581;46.718;7.690;2023-04-24T11:45:13;5.77;;;0.70;;
68608;SDS011;55581;46.718;7.690;2023-04-24T11:47:40;3.15;;;0.50;;
68608;SDS011;55581;46.718;7.690;2023-04-24T11:50:13;1.83;;;0.43;;
68608;SDS011;55581;46.718;7.690;2023-04-24T11:52:40;3.63;;;0.45;;
68608;SDS011;55581;46.718;7.690;2023-04-24T11:55:23;3.08;;;0.40;;
68608;SDS011;55581;46.718;7.690;2023-04-24T11:57:53;2.03;;;0.30;;
68608;SDS011;55581;46.718;7.690;2023-04-24T12:00:24;2.50;;;0.40;;
68608;SDS011;55581;46.718;7.690;2023-04-24T12:03:03;2.35;;;0.30;;
68608;SDS011;55581;46.718;7.690;2023-04-24T12:05:33;3.85;;;0.60;;
68608;SDS011;55581;46.718;7.690;2023-04-24T12:07:59;2.15;;;0.22;;
68608;SDS011;55581;46.718;7.690;2023-04-24T12:10:26;3.33;;;0.47;;
68608;SDS011;55581;46.718;7.690;2023-04-24T12:12:53;1.48;;;0.30;;
68608;SDS011;55581;46.718;7.690;2023-04-24T12:15:21;2.13;;;0.40;;
68608;SDS011;55581;46.718;7.690;2023-04-24T12:17:50;2.50;;;0.53;;
68608;SDS011;55581;46.718;7.690;2023-04-24T12:20:16;2.20;;;0.40;;
68608;SDS011;55581;46.718;7.690;2023-04-24T12:22:46;2.67;;;0.50;;
68608;SDS011;55581;46.718;7.690;2023-04-24T12:25:13;3.30;;;0.45;;
68608;SDS011;55581;46.718;7.690;2023-04-24T12:27:40;2.50;;;0.40;;
68608;SDS011;55581;46.718;7.690;2023-04-24T12:30:09;1.53;;;0.43;;
68608;SDS011;55581;46.718;7.690;2023-04-24T12:32:40;1.67;;;0.40;;
68608;SDS011;55581;46.718;7.690;2023-04-24T12:35:14;1.80;;;0.47;;
68608;SDS011;55581;46.718;7.690;2023-04-24T12:37:45;3.40;;;0.47;;
68608;SDS011;55581;46.718;7.690;2023-04-24T12:40:11;2.40;;;0.40;;
68608;SDS011;55581;46.718;7.690;2023-04-24T12:42:45;1.63;;;0.40;;
68608;SDS011;55581;46.718;7.690;2023-04-24T12:45:14;3.47;;;0.77;;
68608;SDS011;55581;46.718;7.690;2023-04-24T12:47:41;2.13;;;0.35;;
68608;SDS011;55581;46.718;7.690;2023-04-24T12:50:08;3.38;;;0.55;;
68608;SDS011;55581;46.718;7.690;2023-04-24T12:52:35;5.28;;;0.52;;
68608;SDS011;55581;46.718;7.690;2023-04-24T12:55:01;3.03;;;0.93;;
68608;SDS011;55581;46.718;7.690;2023-04-24T12:57:27;4.23;;;0.80;;
68608;SDS011;55581;46.718;7.690;2023-04-24T12:59:54;3.90;;;0.50;;
68608;SDS011;55581;46.718;7.690;2023-04-24T13:02:23;2.40;;;0.68;;
68608;SDS011;55581;46.718;7.690;2023-04-24T13:04:49;3.13;;;0.65;;
68608;SDS011;55581;46.718;7.690;2023-04-24T13:07:16;2.30;;;0.47;;
68608;SDS011;55581;46.718;7.690;2023-04-24T13:09:44;3.08;;;0.70;;
68608;SDS011;55581;46.718;7.690;2023-04-24T13:12:10;2.53;;;0.60;;
68608;SDS011;55581;46.718;7.690;2023-04-24T13:14:41;1.42;;;0.38;;
68608;SDS011;55581;46.718;7.690;2023-04-24T13:17:07;1.90;;;0.43;;
68608;SDS011;55581;46.718;7.690;2023-04-24T13:19:40;3.67;;;0.80;;
68608;SDS011;55581;46.718;7.690;2023-04-24T13:22:06;2.70;;;0.60;;
68608;SDS011;55581;46.718;7.690;2023-04-24T13:24:32;2.93;;;0.50;;
68608;SDS011;55581;46.718;7.690;2023-04-24T13:26:58;2.10;;;0.50;;
68608;SDS011;55581;46.718;7.690;2023-04-24T13:29:25;2.92;;;0.52;;
68608;SDS011;55581;46.718;7.690;2023-04-24T13:31:51;2.43;;;0.50;;
68608;SDS011;55581;46.718;7.690;2023-04-24T13:34:17;2.33;;;0.60;;
68608;SDS011;55581;46.718;7.690;2023-04-24T13:36:43;1.60;;;0.40;;
68608;SDS011;55581;46.718;7.690;2023-04-24T13:39:09;3.15;;;0.60;;
68608;SDS011;55581;46.718;7.690;2023-04-24T13:41:35;2.03;;;0.50;;
68608;SDS011;55581;46.718;7.690;2023-04-24T13:44:03;1.92;;;0.35;;
68608;SDS011;55581;46.718;7.690;2023-04-24T13:46:29;3.22;;;0.30;;
68608;SDS011;55581;46.718;7.690;2023-04-24T13:48:55;3.63;;;0.50;;
68608;SDS011;55581;46.718;7.690;2023-04-24T13:51:21;2.67;;;0.57;;
68608;SDS011;55581;46.718;7.690;2023-04-24T13:53:47;2.73;;;0.30;;
68608;SDS011;55581;46.718;7.690;2023-04-24T13:56:12;3.20;;;0.53;;
68608;SDS011;55581;46.718;7.690;2023-04-24T13:58:39;2.75;;;0.50;;
68608;SDS011;55581;46.718;7.690;2023-04-24T14:01:04;2.70;;;0.60;;
68608;SDS011;55581;46.718;7.690;2023-04-24T14:03:30;2.53;;;0.52;;
68608;SDS011;55581;46.718;7.690;2023-04-24T14:05:57;3.37;;;0.60;;
68608;SDS011;55581;46.718;7.690;2023-04-24T14:08:23;2.83;;;0.45;;
68608;SDS011;55581;46.718;7.690;2023-04-24T14:10:49;3.20;;;0.40;;
68608;SDS011;55581;46.718;7.690;2023-04-24T14:13:15;1.70;;;0.40;;
68608;SDS011;55581;46.718;7.690;2023-04-24T14:15:41;2.28;;;0.45;;
68608;SDS011;55581;46.718;7.690;2023-04-24T14:18:06;2.37;;;0.40;;
68608;SDS011;55581;46.718;7.690;2023-04-24T14:20:31;1.63;;;0.30;;
68608;SDS011;55581;46.718;7.690;2023-04-24T14:23:00;2.47;;;0.50;;
68608;SDS011;55581;46.718;7.690;2023-04-24T14:25:25;3.33;;;1.07;;
68608;SDS011;55581;46.718;7.690;2023-04-24T14:27:51;3.10;;;0.50;;
68608;SDS011;55581;46.718;7.690;2023-04-24T14:30:17;2.70;;;0.47;;
68608;SDS011;55581;46.718;7.690;2023-04-24T14:32:42;3.40;;;0.45;;
68608;SDS011;55581;46.718;7.690;2023-04-24T14:35:08;1.43;;;0.30;;
68608;SDS011;55581;46.718;7.690;2023-04-24T14:37:33;4.47;;;0.82;;
68608;SDS011;55581;46.718;7.690;2023-04-24T14:39:59;4.03;;;0.70;;
68608;SDS011;55581;46.718;7.690;2023-04-24T14:42:24;4.03;;;0.70;;
68608;SDS011;55581;46.718;7.690;2023-04-24T14:44:50;2.40;;;0.50;;
68608;SDS011;55581;46.718;7.690;2023-04-24T14:47:16;4.57;;;1.07;;
68608;SDS011;55581;46.718;7.690;2023-04-24T14:49:42;2.53;;;0.50;;
68608;SDS011;55581;46.718;7.690;2023-04-24T14:52:10;1.85;;;0.32;;
68608;SDS011;55581;46.718;7.690;2023-04-24T14:54:35;4.47;;;0.80;;
68608;SDS011;55581;46.718;7.690;2023-04-24T14:57:01;2.80;;;0.47;;